sensor_id;sensor_type;location;lat;lon;timestamp;P1;durP1;ratioP1;P2;durP2;ratioP2
51266;SDS011;37338;47.426;19.204;2024-01-15T00:01:04;74.10;;;36.90;;
51266;SDS011;37338;47.426;19.204;2024-01-15T00:03:29;69.70;;;38.03;;
51266;SDS011;37338;47.426;19.204;2024-01-15T00:05:54;63.67;;;35.07;;
51266;SDS011;37338;47.426;19.204;2024-01-15T00:08:20;68.80;;;35.60;;
51266;SDS011;37338;47.426;19.204;2024-01-15T00:10:45;72.73;;;38.47;;
51266;SDS011;37338;47.426;19.204;2024-01-15T00:13:10;66.50;;;37.10;;
51266;SDS011;37338;47.426;19.204;2024-01-15T00:15:35;62.50;;;36.07;;
51266;SDS011;37338;47.426;19.204;2024-01-15T00:18:01;64.00;;;34.77;;
51266;SDS011;37338;47.426;19.204;2024-01-15T00:20:26;62.80;;;33.93;;
51266;SDS011;37338;47.426;19.204;2024-01-15T00:22:51;56.80;;;33.43;;
51266;SDS011;37338;47.426;19.204;2024-01-15T00:25:17;63.43;;;35.13;;
51266;SDS011;37338;47.426;19.204;2024-01-15T00:27:42;61.13;;;34.33;;
51266;SDS011;37338;47.426;19.204;2024-01-15T00:30:08;60.90;;;35.40;;
51266;SDS011;37338;47.426;19.204;2024-01-15T00:32:34;62.53;;;33.20;;
51266;SDS011;37338;47.426;19.204;2024-01-15T00:34:59;55.90;;;31.30;;
51266;SDS011;37338;47.426;19.204;2024-01-15T00:37:24;59.30;;;33.70;;
51266;SDS011;37338;47.426;19.204;2024-01-15T00:39:50;55.53;;;33.13;;
51266;SDS011;37338;47.426;19.204;2024-01-15T00:42:15;51.87;;;31.83;;
51266;SDS011;37338;47.426;19.204;2024-01-15T00:44:41;56.00;;;32.03;;
51266;SDS011;37338;47.426;19.204;2024-01-15T00:47:07;59.93;;;32.67;;
51266;SDS011;37338;47.426;19.204;2024-01-15T00:49:32;57.30;;;32.40;;
51266;SDS011;37338;47.426;19.204;2024-01-15T00:51:58;55.50;;;32.50;;
51266;SDS011;37338;47.426;19.204;2024-01-15T00:54:23;57.10;;;30.63;;
51266;SDS011;37338;47.426;19.204;2024-01-15T00:56:48;56.40;;;31.60;;
51266;SDS011;37338;47.426;19.204;2024-01-15T00:59:14;59.70;;;32.10;;
51266;SDS011;37338;47.426;19.204;2024-01-15T01:01:40;62.13;;;32.97;;
51266;SDS011;37338;47.426;19.204;2024-01-15T01:04:08;54.50;;;30.20;;
51266;SDS011;37338;47.426;19.204;2024-01-15T01:06:34;58.03;;;34.13;;
51266;SDS011;37338;47.426;19.204;2024-01-15T01:08:59;62.90;;;33.90;;
51266;SDS011;37338;47.426;19.204;2024-01-15T01:11:25;58.40;;;31.87;;
51266;SDS011;37338;47.426;19.204;2024-01-15T01:13:50;62.83;;;33.13;;
51266;SDS011;37338;47.426;19.204;2024-01-15T01:16:15;60.77;;;35.87;;
51266;SDS011;37338;47.426;19.204;2024-01-15T01:18:40;57.33;;;34.23;;
51266;SDS011;37338;47.426;19.204;2024-01-15T01:21:06;57.20;;;32.87;;
51266;SDS011;37338;47.426;19.204;2024-01-15T01:23:31;58.00;;;33.70;;
51266;SDS011;37338;47.426;19.204;2024-01-15T01:25:56;59.43;;;32.40;;
51266;SDS011;37338;47.426;19.204;2024-01-15T01:28:22;55.63;;;32.40;;
51266;SDS011;37338;47.426;19.204;2024-01-15T01:30:47;61.47;;;32.77;;
51266;SDS011;37338;47.426;19.204;2024-01-15T01:33:12;62.40;;;33.40;;
51266;SDS011;37338;47.426;19.204;2024-01-15T01:35:38;55.40;;;32.17;;
51266;SDS011;37338;47.426;19.204;2024-01-15T01:38:03;55.90;;;32.37;;
51266;SDS011;37338;47.426;19.204;2024-01-15T01:40:28;52.77;;;31.83;;
51266;SDS011;37338;47.426;19.204;2024-01-15T01:42:54;56.10;;;32.40;;
51266;SDS011;37338;47.426;19.204;2024-01-15T01:45:19;53.03;;;32.03;;
51266;SDS011;37338;47.426;19.204;2024-01-15T01:47:44;52.83;;;32.77;;
51266;SDS011;37338;47.426;19.204;2024-01-15T01:50:10;57.60;;;32.97;;
51266;SDS011;37338;47.426;19.204;2024-01-15T01:52:35;54.37;;;31.63;;
51266;SDS011;37338;47.426;19.204;2024-01-15T01:55:01;55.97;;;32.07;;
51266;SDS011;37338;47.426;19.204;2024-01-15T01:57:27;54.07;;;30.70;;
51266;SDS011;37338;47.426;19.204;2024-01-15T01:59:53;53.43;;;31.77;;
51266;SDS011;37338;47.426;19.204;2024-01-15T02:02:19;53.70;;;30.77;;
51266;SDS011;37338;47.426;19.204;2024-01-15T02:04:45;54.27;;;31.87;;
51266;SDS011;37338;47.426;19.204;2024-01-15T02:07:12;56.87;;;32.00;;
51266;SDS011;37338;47.426;19.204;2024-01-15T02:09:37;57.00;;;34.73;;
51266;SDS011;37338;47.426;19.204;2024-01-15T02:12:03;56.03;;;32.23;;
51266;SDS011;37338;47.426;19.204;2024-01-15T02:14:28;52.43;;;32.03;;
51266;SDS011;37338;47.426;19.204;2024-01-15T02:16:54;59.53;;;32.80;;
51266;SDS011;37338;47.426;19.204;2024-01-15T02:19:19;56.70;;;32.97;;
51266;SDS011;37338;47.426;19.204;2024-01-15T02:21:44;62.33;;;33.33;;
51266;SDS011;37338;47.426;19.204;2024-01-15T02:24:10;55.30;;;33.73;;
51266;SDS011;37338;47.426;19.204;2024-01-15T02:26:36;59.10;;;32.07;;
51266;SDS011;37338;47.426;19.204;2024-01-15T02:29:03;61.67;;;32.90;;
51266;SDS011;37338;47.426;19.204;2024-01-15T02:31:29;58.97;;;32.13;;
51266;SDS011;37338;47.426;19.204;2024-01-15T02:33:55;52.93;;;31.73;;
51266;SDS011;37338;47.426;19.204;2024-01-15T02:36:20;56.70;;;32.43;;
51266;SDS011;37338;47.426;19.204;2024-01-15T02:38:45;56.27;;;31.67;;
51266;SDS011;37338;47.426;19.204;2024-01-15T02:41:11;55.47;;;30.73;;
51266;SDS011;37338;47.426;19.204;2024-01-15T02:43:39;55.83;;;32.37;;
51266;SDS011;37338;47.426;19.204;2024-01-15T02:46:04;53.87;;;30.93;;
51266;SDS011;37338;47.426;19.204;2024-01-15T02:48:29;58.73;;;33.53;;
51266;SDS011;37338;47.426;19.204;2024-01-15T02:50:55;56.00;;;32.20;;
51266;SDS011;37338;47.426;19.204;2024-01-15T02:53:20;52.83;;;30.30;;
51266;SDS011;37338;47.426;19.204;2024-01-15T02:55:45;55.33;;;33.17;;
51266;SDS011;37338;47.426;19.204;2024-01-15T02:58:11;59.67;;;32.20;;
51266;SDS011;37338;47.426;19.204;2024-01-15T03:00:36;61.23;;;36.63;;
51266;SDS011;37338;47.426;19.204;2024-01-15T03:03:01;57.00;;;31.03;;
51266;SDS011;37338;47.426;19.204;2024-01-15T03:05:27;58.77;;;33.40;;
51266;SDS011;37338;47.426;19.204;2024-01-15T03:07:52;56.83;;;31.80;;
51266;SDS011;37338;47.426;19.204;2024-01-15T03:10:17;61.83;;;34.17;;
51266;SDS011;37338;47.426;19.204;2024-01-15T03:12:42;60.37;;;32.63;;
51266;SDS011;37338;47.426;19.204;2024-01-15T03:15:08;55.50;;;30.43;;
51266;SDS011;37338;47.426;19.204;2024-01-15T03:17:33;56.13;;;32.70;;
51266;SDS011;37338;47.426;19.204;2024-01-15T03:19:59;61.73;;;32.70;;
51266;SDS011;37338;47.426;19.204;2024-01-15T03:22:24;55.73;;;31.43;;
51266;SDS011;37338;47.426;19.204;2024-01-15T03:24:49;57.27;;;32.33;;
51266;SDS011;37338;47.426;19.204;2024-01-15T03:27:15;52.07;;;30.07;;
51266;SDS011;37338;47.426;19.204;2024-01-15T03:29:40;60.83;;;31.30;;
51266;SDS011;37338;47.426;19.204;2024-01-15T03:32:06;58.83;;;32.30;;
51266;SDS011;37338;47.426;19.204;2024-01-15T03:34:31;58.93;;;30.57;;
51266;SDS011;37338;47.426;19.204;2024-01-15T03:36:57;55.43;;;29.93;;
51266;SDS011;37338;47.426;19.204;2024-01-15T03:39:22;54.43;;;30.60;;
51266;SDS011;37338;47.426;19.204;2024-01-15T03:41:47;56.73;;;31.40;;
51266;SDS011;37338;47.426;19.204;2024-01-15T03:44:13;60.27;;;32.17;;
51266;SDS011;37338;47.426;19.204;2024-01-15T03:46:38;55.80;;;32.10;;
51266;SDS011;37338;47.426;19.204;2024-01-15T03:49:03;57.83;;;31.67;;
51266;SDS011;37338;47.426;19.204;2024-01-15T03:51:29;53.07;;;29.90;;
51266;SDS011;37338;47.426;19.204;2024-01-15T03:53:54;53.50;;;30.40;;
51266;SDS011;37338;47.426;19.204;2024-01-15T03:56:19;55.93;;;29.67;;
51266;SDS011;37338;47.426;19.204;2024-01-15T03:58:44;54.67;;;31.70;;
51266;SDS011;37338;47.426;19.204;2024-01-15T04:01:10;56.83;;;30.43;;
51266;SDS011;37338;47.426;19.204;2024-01-15T04:03:35;56.00;;;30.47;;
51266;SDS011;37338;47.426;19.204;2024-01-15T04:06:01;48.67;;;27.50;;
51266;SDS011;37338;47.426;19.204;2024-01-15T04:08:26;51.67;;;30.23;;
51266;SDS011;37338;47.426;19.204;2024-01-15T04:10:52;55.63;;;29.80;;
51266;SDS011;37338;47.426;19.204;2024-01-15T04:13:17;61.97;;;31.57;;
51266;SDS011;37338;47.426;19.204;2024-01-15T04:15:42;48.37;;;29.77;;
51266;SDS011;37338;47.426;19.204;2024-01-15T04:18:08;59.13;;;31.97;;
51266;SDS011;37338;47.426;19.204;2024-01-15T04:20:33;57.57;;;31.60;;
51266;SDS011;37338;47.426;19.204;2024-01-15T04:22:58;58.53;;;33.87;;
51266;SDS011;37338;47.426;19.204;2024-01-15T04:25:24;64.97;;;34.30;;
51266;SDS011;37338;47.426;19.204;2024-01-15T04:27:49;54.97;;;31.13;;
51266;SDS011;37338;47.426;19.204;2024-01-15T04:30:14;56.90;;;30.53;;
51266;SDS011;37338;47.426;19.204;2024-01-15T04:32:40;58.50;;;34.43;;
51266;SDS011;37338;47.426;19.204;2024-01-15T04:35:05;59.40;;;30.87;;
51266;SDS011;37338;47.426;19.204;2024-01-15T04:37:31;57.83;;;33.13;;
51266;SDS011;37338;47.426;19.204;2024-01-15T04:39:56;56.03;;;30.30;;
51266;SDS011;37338;47.426;19.204;2024-01-15T04:42:22;55.63;;;30.60;;
51266;SDS011;37338;47.426;19.204;2024-01-15T04:44:47;57.17;;;31.53;;
51266;SDS011;37338;47.426;19.204;2024-01-15T04:47:13;58.03;;;31.87;;
51266;SDS011;37338;47.426;19.204;2024-01-15T04:49:38;57.17;;;32.40;;
51266;SDS011;37338;47.426;19.204;2024-01-15T04:52:03;59.33;;;31.13;;
51266;SDS011;37338;47.426;19.204;2024-01-15T04:54:29;61.83;;;33.17;;
51266;SDS011;37338;47.426;19.204;2024-01-15T04:56:54;55.70;;;30.40;;
51266;SDS011;37338;47.426;19.204;2024-01-15T04:59:19;57.00;;;32.40;;
51266;SDS011;37338;47.426;19.204;2024-01-15T05:01:45;54.53;;;31.40;;
51266;SDS011;37338;47.426;19.204;2024-01-15T05:04:10;61.93;;;33.67;;
51266;SDS011;37338;47.426;19.204;2024-01-15T05:06:35;54.23;;;31.77;;
51266;SDS011;37338;47.426;19.204;2024-01-15T05:09:01;56.20;;;30.83;;
51266;SDS011;37338;47.426;19.204;2024-01-15T05:11:26;54.87;;;30.73;;
51266;SDS011;37338;47.426;19.204;2024-01-15T05:13:51;50.57;;;30.60;;
51266;SDS011;37338;47.426;19.204;2024-01-15T05:16:17;66.67;;;36.00;;
51266;SDS011;37338;47.426;19.204;2024-01-15T05:18:42;62.47;;;33.77;;
51266;SDS011;37338;47.426;19.204;2024-01-15T05:21:08;64.57;;;35.03;;
51266;SDS011;37338;47.426;19.204;2024-01-15T05:23:34;58.03;;;32.23;;
51266;SDS011;37338;47.426;19.204;2024-01-15T05:25:59;58.57;;;32.50;;
51266;SDS011;37338;47.426;19.204;2024-01-15T05:28:25;61.50;;;33.30;;
51266;SDS011;37338;47.426;19.204;2024-01-15T05:30:50;65.93;;;34.93;;
51266;SDS011;37338;47.426;19.204;2024-01-15T05:33:16;57.57;;;32.80;;
51266;SDS011;37338;47.426;19.204;2024-01-15T05:35:41;63.60;;;33.30;;
51266;SDS011;37338;47.426;19.204;2024-01-15T05:38:07;58.30;;;34.53;;
51266;SDS011;37338;47.426;19.204;2024-01-15T05:40:32;66.20;;;35.20;;
51266;SDS011;37338;47.426;19.204;2024-01-15T05:42:57;64.63;;;34.80;;
51266;SDS011;37338;47.426;19.204;2024-01-15T05:45:23;62.50;;;34.33;;
51266;SDS011;37338;47.426;19.204;2024-01-15T05:47:48;64.83;;;33.90;;
51266;SDS011;37338;47.426;19.204;2024-01-15T05:50:14;58.77;;;33.43;;
51266;SDS011;37338;47.426;19.204;2024-01-15T05:52:39;60.33;;;31.77;;
51266;SDS011;37338;47.426;19.204;2024-01-15T05:55:05;64.30;;;33.50;;
51266;SDS011;37338;47.426;19.204;2024-01-15T05:57:30;61.93;;;33.77;;
51266;SDS011;37338;47.426;19.204;2024-01-15T05:59:55;60.17;;;33.67;;
51266;SDS011;37338;47.426;19.204;2024-01-15T06:02:21;64.20;;;33.97;;
51266;SDS011;37338;47.426;19.204;2024-01-15T06:04:46;63.40;;;34.30;;
51266;SDS011;37338;47.426;19.204;2024-01-15T06:07:11;62.83;;;35.37;;
51266;SDS011;37338;47.426;19.204;2024-01-15T06:09:37;65.70;;;36.50;;
51266;SDS011;37338;47.426;19.204;2024-01-15T06:12:03;62.93;;;34.03;;
51266;SDS011;37338;47.426;19.204;2024-01-15T06:14:29;69.90;;;36.97;;
51266;SDS011;37338;47.426;19.204;2024-01-15T06:16:54;63.47;;;35.87;;
51266;SDS011;37338;47.426;19.204;2024-01-15T06:19:19;62.63;;;33.07;;
51266;SDS011;37338;47.426;19.204;2024-01-15T06:21:45;69.43;;;35.67;;
51266;SDS011;37338;47.426;19.204;2024-01-15T06:24:10;70.07;;;34.93;;
51266;SDS011;37338;47.426;19.204;2024-01-15T06:26:36;63.87;;;35.27;;
51266;SDS011;37338;47.426;19.204;2024-01-15T06:29:01;57.63;;;33.33;;
51266;SDS011;37338;47.426;19.204;2024-01-15T06:31:28;61.77;;;33.63;;
51266;SDS011;37338;47.426;19.204;2024-01-15T06:33:53;63.77;;;34.33;;
51266;SDS011;37338;47.426;19.204;2024-01-15T06:36:18;56.53;;;34.07;;
51266;SDS011;37338;47.426;19.204;2024-01-15T06:38:44;59.13;;;35.27;;
51266;SDS011;37338;47.426;19.204;2024-01-15T06:41:09;58.53;;;34.47;;
51266;SDS011;37338;47.426;19.204;2024-01-15T06:43:35;63.33;;;35.73;;
51266;SDS011;37338;47.426;19.204;2024-01-15T06:46:00;75.97;;;36.33;;
51266;SDS011;37338;47.426;19.204;2024-01-15T06:48:25;67.33;;;36.57;;
51266;SDS011;37338;47.426;19.204;2024-01-15T06:50:51;68.40;;;37.73;;
51266;SDS011;37338;47.426;19.204;2024-01-15T06:53:16;69.27;;;40.13;;
51266;SDS011;37338;47.426;19.204;2024-01-15T06:55:41;70.23;;;38.60;;
51266;SDS011;37338;47.426;19.204;2024-01-15T06:58:07;68.30;;;39.40;;
51266;SDS011;37338;47.426;19.204;2024-01-15T07:00:32;79.13;;;44.57;;
51266;SDS011;37338;47.426;19.204;2024-01-15T07:02:58;85.93;;;48.03;;
51266;SDS011;37338;47.426;19.204;2024-01-15T07:05:23;141.70;;;64.37;;
51266;SDS011;37338;47.426;19.204;2024-01-15T07:07:49;118.37;;;61.20;;
51266;SDS011;37338;47.426;19.204;2024-01-15T07:10:14;145.10;;;72.97;;
51266;SDS011;37338;47.426;19.204;2024-01-15T07:12:43;117.43;;;60.57;;
51266;SDS011;37338;47.426;19.204;2024-01-15T07:15:09;98.70;;;52.30;;
51266;SDS011;37338;47.426;19.204;2024-01-15T07:17:34;94.20;;;52.13;;
51266;SDS011;37338;47.426;19.204;2024-01-15T07:20:00;106.33;;;54.80;;
51266;SDS011;37338;47.426;19.204;2024-01-15T07:22:25;96.83;;;50.63;;
51266;SDS011;37338;47.426;19.204;2024-01-15T07:24:51;92.97;;;50.00;;
51266;SDS011;37338;47.426;19.204;2024-01-15T07:27:16;101.17;;;50.83;;
51266;SDS011;37338;47.426;19.204;2024-01-15T07:29:41;107.00;;;52.40;;
51266;SDS011;37338;47.426;19.204;2024-01-15T07:32:08;100.93;;;54.00;;
51266;SDS011;37338;47.426;19.204;2024-01-15T07:34:33;100.80;;;50.70;;
51266;SDS011;37338;47.426;19.204;2024-01-15T07:36:58;99.17;;;52.37;;
51266;SDS011;37338;47.426;19.204;2024-01-15T07:39:24;96.63;;;51.47;;
51266;SDS011;37338;47.426;19.204;2024-01-15T07:41:50;93.63;;;49.10;;
51266;SDS011;37338;47.426;19.204;2024-01-15T07:44:16;94.37;;;50.10;;
51266;SDS011;37338;47.426;19.204;2024-01-15T07:46:45;88.47;;;49.73;;
51266;SDS011;37338;47.426;19.204;2024-01-15T07:49:13;86.47;;;46.77;;
51266;SDS011;37338;47.426;19.204;2024-01-15T07:51:38;87.87;;;45.97;;
51266;SDS011;37338;47.426;19.204;2024-01-15T07:54:05;83.13;;;43.97;;
51266;SDS011;37338;47.426;19.204;2024-01-15T07:56:31;87.30;;;46.67;;
51266;SDS011;37338;47.426;19.204;2024-01-15T07:58:56;84.00;;;45.57;;
51266;SDS011;37338;47.426;19.204;2024-01-15T08:01:22;78.63;;;45.40;;
51266;SDS011;37338;47.426;19.204;2024-01-15T08:03:47;86.43;;;48.07;;
51266;SDS011;37338;47.426;19.204;2024-01-15T08:06:13;84.17;;;45.57;;
51266;SDS011;37338;47.426;19.204;2024-01-15T08:08:38;85.33;;;45.47;;
51266;SDS011;37338;47.426;19.204;2024-01-15T08:11:03;79.47;;;45.50;;
51266;SDS011;37338;47.426;19.204;2024-01-15T08:13:29;81.37;;;44.57;;
51266;SDS011;37338;47.426;19.204;2024-01-15T08:15:55;71.13;;;42.63;;
51266;SDS011;37338;47.426;19.204;2024-01-15T08:18:21;73.60;;;41.40;;
51266;SDS011;37338;47.426;19.204;2024-01-15T08:20:46;72.47;;;41.43;;
51266;SDS011;37338;47.426;19.204;2024-01-15T08:23:12;74.80;;;42.00;;
51266;SDS011;37338;47.426;19.204;2024-01-15T08:25:37;70.07;;;39.97;;
51266;SDS011;37338;47.426;19.204;2024-01-15T08:28:02;73.17;;;39.83;;
51266;SDS011;37338;47.426;19.204;2024-01-15T08:30:28;63.60;;;37.00;;
51266;SDS011;37338;47.426;19.204;2024-01-15T08:32:54;57.53;;;34.13;;
51266;SDS011;37338;47.426;19.204;2024-01-15T08:35:19;58.70;;;33.53;;
51266;SDS011;37338;47.426;19.204;2024-01-15T08:37:48;56.57;;;30.13;;
51266;SDS011;37338;47.426;19.204;2024-01-15T08:40:17;49.87;;;29.07;;
51266;SDS011;37338;47.426;19.204;2024-01-15T08:42:43;48.27;;;29.17;;
51266;SDS011;37338;47.426;19.204;2024-01-15T08:45:08;47.27;;;28.20;;
51266;SDS011;37338;47.426;19.204;2024-01-15T08:47:34;47.57;;;26.90;;
51266;SDS011;37338;47.426;19.204;2024-01-15T08:50:00;45.80;;;25.77;;
51266;SDS011;37338;47.426;19.204;2024-01-15T08:52:25;46.13;;;25.70;;
51266;SDS011;37338;47.426;19.204;2024-01-15T08:54:51;45.57;;;25.33;;
51266;SDS011;37338;47.426;19.204;2024-01-15T08:57:16;35.77;;;22.50;;
51266;SDS011;37338;47.426;19.204;2024-01-15T08:59:42;41.33;;;23.60;;
51266;SDS011;37338;47.426;19.204;2024-01-15T09:02:07;43.50;;;23.70;;
51266;SDS011;37338;47.426;19.204;2024-01-15T09:04:32;41.33;;;24.10;;
51266;SDS011;37338;47.426;19.204;2024-01-15T09:06:58;39.53;;;23.93;;
51266;SDS011;37338;47.426;19.204;2024-01-15T09:09:23;41.30;;;24.53;;
51266;SDS011;37338;47.426;19.204;2024-01-15T09:11:49;44.40;;;26.27;;
51266;SDS011;37338;47.426;19.204;2024-01-15T09:14:15;38.17;;;23.90;;
51266;SDS011;37338;47.426;19.204;2024-01-15T09:16:40;43.87;;;24.63;;
51266;SDS011;37338;47.426;19.204;2024-01-15T09:19:06;42.07;;;27.07;;
51266;SDS011;37338;47.426;19.204;2024-01-15T09:21:31;38.00;;;23.43;;
51266;SDS011;37338;47.426;19.204;2024-01-15T09:23:56;38.37;;;24.30;;
51266;SDS011;37338;47.426;19.204;2024-01-15T09:26:23;46.47;;;23.73;;
51266;SDS011;37338;47.426;19.204;2024-01-15T09:28:48;45.10;;;24.47;;
51266;SDS011;37338;47.426;19.204;2024-01-15T09:31:14;40.07;;;23.83;;
51266;SDS011;37338;47.426;19.204;2024-01-15T09:33:39;33.17;;;20.07;;
51266;SDS011;37338;47.426;19.204;2024-01-15T09:36:05;46.53;;;23.80;;
51266;SDS011;37338;47.426;19.204;2024-01-15T09:38:30;40.43;;;23.73;;
51266;SDS011;37338;47.426;19.204;2024-01-15T09:40:57;38.70;;;22.93;;
51266;SDS011;37338;47.426;19.204;2024-01-15T09:43:22;30.00;;;18.50;;
51266;SDS011;37338;47.426;19.204;2024-01-15T09:45:47;30.93;;;18.70;;
51266;SDS011;37338;47.426;19.204;2024-01-15T09:48:14;32.47;;;18.93;;
51266;SDS011;37338;47.426;19.204;2024-01-15T09:50:40;31.87;;;20.07;;
51266;SDS011;37338;47.426;19.204;2024-01-15T09:53:05;19.77;;;11.10;;
51266;SDS011;37338;47.426;19.204;2024-01-15T09:55:30;18.90;;;10.27;;
51266;SDS011;37338;47.426;19.204;2024-01-15T09:57:57;22.30;;;10.00;;
51266;SDS011;37338;47.426;19.204;2024-01-15T10:00:24;19.00;;;9.67;;
51266;SDS011;37338;47.426;19.204;2024-01-15T10:02:50;17.00;;;9.80;;
51266;SDS011;37338;47.426;19.204;2024-01-15T10:05:15;14.30;;;9.17;;
51266;SDS011;37338;47.426;19.204;2024-01-15T10:07:41;18.83;;;9.10;;
51266;SDS011;37338;47.426;19.204;2024-01-15T10:10:07;14.23;;;7.53;;
51266;SDS011;37338;47.426;19.204;2024-01-15T10:12:32;13.67;;;8.50;;
51266;SDS011;37338;47.426;19.204;2024-01-15T10:14:58;13.40;;;7.63;;
51266;SDS011;37338;47.426;19.204;2024-01-15T10:17:24;13.87;;;8.37;;
51266;SDS011;37338;47.426;19.204;2024-01-15T10:19:50;15.03;;;7.00;;
51266;SDS011;37338;47.426;19.204;2024-01-15T10:22:15;12.60;;;7.60;;
51266;SDS011;37338;47.426;19.204;2024-01-15T10:24:42;13.47;;;7.30;;
51266;SDS011;37338;47.426;19.204;2024-01-15T10:27:08;15.73;;;7.33;;
51266;SDS011;37338;47.426;19.204;2024-01-15T10:29:34;18.90;;;7.73;;
51266;SDS011;37338;47.426;19.204;2024-01-15T10:32:00;11.03;;;6.00;;
51266;SDS011;37338;47.426;19.204;2024-01-15T10:34:26;11.27;;;5.57;;
51266;SDS011;37338;47.426;19.204;2024-01-15T10:36:51;13.40;;;6.57;;
51266;SDS011;37338;47.426;19.204;2024-01-15T10:39:20;10.33;;;6.20;;
51266;SDS011;37338;47.426;19.204;2024-01-15T10:41:46;10.80;;;5.87;;
51266;SDS011;37338;47.426;19.204;2024-01-15T10:44:12;11.13;;;4.73;;
51266;SDS011;37338;47.426;19.204;2024-01-15T10:46:37;13.90;;;6.47;;
51266;SDS011;37338;47.426;19.204;2024-01-15T10:49:02;9.80;;;5.43;;
51266;SDS011;37338;47.426;19.204;2024-01-15T10:51:29;22.57;;;8.43;;
51266;SDS011;37338;47.426;19.204;2024-01-15T10:53:54;11.13;;;6.50;;
51266;SDS011;37338;47.426;19.204;2024-01-15T10:56:20;9.53;;;5.17;;
51266;SDS011;37338;47.426;19.204;2024-01-15T10:58:46;8.97;;;5.60;;
51266;SDS011;37338;47.426;19.204;2024-01-15T11:01:12;9.53;;;5.63;;
51266;SDS011;37338;47.426;19.204;2024-01-15T11:03:38;11.47;;;6.63;;
51266;SDS011;37338;47.426;19.204;2024-01-15T11:06:03;10.00;;;5.83;;
51266;SDS011;37338;47.426;19.204;2024-01-15T11:08:42;10.17;;;5.43;;
51266;SDS011;37338;47.426;19.204;2024-01-15T11:11:07;10.30;;;5.50;;
51266;SDS011;37338;47.426;19.204;2024-01-15T11:15:58;10.97;;;5.53;;
51266;SDS011;37338;47.426;19.204;2024-01-15T11:18:31;10.00;;;5.07;;
51266;SDS011;37338;47.426;19.204;2024-01-15T11:21:20;11.53;;;5.00;;
51266;SDS011;37338;47.426;19.204;2024-01-15T11:23:47;9.20;;;5.63;;
51266;SDS011;37338;47.426;19.204;2024-01-15T11:28:54;9.77;;;5.83;;
51266;SDS011;37338;47.426;19.204;2024-01-15T11:31:20;8.43;;;5.77;;
51266;SDS011;37338;47.426;19.204;2024-01-15T11:33:51;8.23;;;4.87;;
51266;SDS011;37338;47.426;19.204;2024-01-15T11:36:18;11.17;;;5.73;;
51266;SDS011;37338;47.426;19.204;2024-01-15T11:38:43;11.03;;;4.97;;
51266;SDS011;37338;47.426;19.204;2024-01-15T11:41:15;9.57;;;5.00;;
51266;SDS011;37338;47.426;19.204;2024-01-15T11:43:43;6.93;;;4.80;;
51266;SDS011;37338;47.426;19.204;2024-01-15T11:46:11;8.83;;;4.30;;
51266;SDS011;37338;47.426;19.204;2024-01-15T11:48:43;5.83;;;4.03;;
51266;SDS011;37338;47.426;19.204;2024-01-15T11:51:12;7.17;;;4.13;;
51266;SDS011;37338;47.426;19.204;2024-01-15T11:53:43;8.17;;;4.10;;
51266;SDS011;37338;47.426;19.204;2024-01-15T11:56:19;11.85;;;4.93;;
51266;SDS011;37338;47.426;19.204;2024-01-15T11:58:47;8.13;;;4.53;;
51266;SDS011;37338;47.426;19.204;2024-01-15T12:01:12;9.50;;;4.93;;
51266;SDS011;37338;47.426;19.204;2024-01-15T12:03:38;9.07;;;4.53;;
51266;SDS011;37338;47.426;19.204;2024-01-15T12:06:06;10.53;;;4.60;;
51266;SDS011;37338;47.426;19.204;2024-01-15T12:08:32;9.43;;;5.30;;
51266;SDS011;37338;47.426;19.204;2024-01-15T12:10:57;8.07;;;4.70;;
51266;SDS011;37338;47.426;19.204;2024-01-15T12:13:23;8.07;;;4.87;;
51266;SDS011;37338;47.426;19.204;2024-01-15T12:15:48;10.00;;;5.20;;
51266;SDS011;37338;47.426;19.204;2024-01-15T12:18:14;9.40;;;4.77;;
51266;SDS011;37338;47.426;19.204;2024-01-15T12:20:41;11.10;;;5.33;;
51266;SDS011;37338;47.426;19.204;2024-01-15T12:23:07;9.80;;;4.10;;
51266;SDS011;37338;47.426;19.204;2024-01-15T12:25:33;8.43;;;4.40;;
51266;SDS011;37338;47.426;19.204;2024-01-15T12:27:59;6.80;;;4.13;;
51266;SDS011;37338;47.426;19.204;2024-01-15T12:30:26;6.43;;;4.20;;
51266;SDS011;37338;47.426;19.204;2024-01-15T12:32:51;7.83;;;3.77;;
51266;SDS011;37338;47.426;19.204;2024-01-15T12:35:17;5.77;;;2.70;;
51266;SDS011;37338;47.426;19.204;2024-01-15T12:37:42;6.77;;;3.57;;
51266;SDS011;37338;47.426;19.204;2024-01-15T12:40:09;8.23;;;3.23;;
51266;SDS011;37338;47.426;19.204;2024-01-15T12:42:37;9.17;;;3.77;;
51266;SDS011;37338;47.426;19.204;2024-01-15T12:45:08;6.37;;;2.67;;
51266;SDS011;37338;47.426;19.204;2024-01-15T12:47:38;6.33;;;3.17;;
51266;SDS011;37338;47.426;19.204;2024-01-15T12:50:12;6.63;;;3.23;;
51266;SDS011;37338;47.426;19.204;2024-01-15T12:52:41;5.50;;;3.20;;
51266;SDS011;37338;47.426;19.204;2024-01-15T12:55:07;6.40;;;3.27;;
51266;SDS011;37338;47.426;19.204;2024-01-15T12:57:34;8.47;;;4.57;;
51266;SDS011;37338;47.426;19.204;2024-01-15T13:00:00;4.93;;;3.27;;
51266;SDS011;37338;47.426;19.204;2024-01-15T13:02:25;8.50;;;3.63;;
51266;SDS011;37338;47.426;19.204;2024-01-15T13:04:51;7.00;;;3.80;;
51266;SDS011;37338;47.426;19.204;2024-01-15T13:07:16;8.67;;;3.57;;
51266;SDS011;37338;47.426;19.204;2024-01-15T13:09:42;7.13;;;3.83;;
51266;SDS011;37338;47.426;19.204;2024-01-15T13:12:08;8.80;;;4.33;;
51266;SDS011;37338;47.426;19.204;2024-01-15T13:14:33;10.50;;;3.90;;
51266;SDS011;37338;47.426;19.204;2024-01-15T13:16:59;13.93;;;3.83;;
51266;SDS011;37338;47.426;19.204;2024-01-15T13:19:24;6.73;;;4.17;;
51266;SDS011;37338;47.426;19.204;2024-01-15T13:21:50;7.30;;;3.93;;
51266;SDS011;37338;47.426;19.204;2024-01-15T13:24:16;6.20;;;2.93;;
51266;SDS011;37338;47.426;19.204;2024-01-15T13:26:45;4.57;;;2.63;;
51266;SDS011;37338;47.426;19.204;2024-01-15T13:29:10;8.53;;;3.10;;
51266;SDS011;37338;47.426;19.204;2024-01-15T13:31:35;6.20;;;3.20;;
51266;SDS011;37338;47.426;19.204;2024-01-15T13:34:01;5.00;;;2.67;;
51266;SDS011;37338;47.426;19.204;2024-01-15T13:36:26;6.30;;;3.43;;
51266;SDS011;37338;47.426;19.204;2024-01-15T13:38:52;6.77;;;3.43;;
51266;SDS011;37338;47.426;19.204;2024-01-15T13:41:22;7.87;;;4.00;;
51266;SDS011;37338;47.426;19.204;2024-01-15T13:43:50;6.37;;;2.70;;
51266;SDS011;37338;47.426;19.204;2024-01-15T13:46:17;9.13;;;3.77;;
51266;SDS011;37338;47.426;19.204;2024-01-15T13:48:43;6.33;;;3.63;;
51266;SDS011;37338;47.426;19.204;2024-01-15T13:51:08;10.17;;;3.57;;
51266;SDS011;37338;47.426;19.204;2024-01-15T13:53:33;10.57;;;4.23;;
51266;SDS011;37338;47.426;19.204;2024-01-15T13:55:59;5.50;;;3.67;;
51266;SDS011;37338;47.426;19.204;2024-01-15T13:58:24;5.20;;;3.10;;
51266;SDS011;37338;47.426;19.204;2024-01-15T14:00:50;6.33;;;3.27;;
51266;SDS011;37338;47.426;19.204;2024-01-15T14:03:16;8.83;;;3.90;;
51266;SDS011;37338;47.426;19.204;2024-01-15T14:05:41;7.57;;;3.13;;
51266;SDS011;37338;47.426;19.204;2024-01-15T14:08:06;9.70;;;4.70;;
51266;SDS011;37338;47.426;19.204;2024-01-15T14:10:32;8.13;;;3.20;;